<?xml version="1.0" encoding="UTF-8" standalone="no" ?>
<gpx xmlns="http://www.topografix.com/GPX/1/1" xmlns:xsi="http://www.w3.org/2001/XMLSchema-instance" xsi:schemaLocation="http://www.topografix.com/GPX/1/1 http://www.topografix.com/GPX/1/1/gpx.xsd" version="1.1" creator="VisuGPX - https://www.visugpx.com">
  <metadata>
    <name>Chevauchées - 4 juin 2022 - Savigny en Véron - cavaliers et attelage</name>
  </metadata>
  <trk>
    <name><![CDATA[Chevauchées - 4 juin 2022 - Savigny en Véron - cavaliers et attelage]]></name>
    <extensions>
      <line xmlns="http://www.topografix.com/GPX/gpx_style/0/2">
        <color>0000FF</color>
        <width>4</width>
      </line>
    </extensions>
    <trkseg>
      <trkpt lat="47.22484" lon="0.12627">
        <ele>32</ele>
        <time>2022-04-30T20:20:58+02:00</time>
      </trkpt>
      <trkpt lat="47.22376" lon="0.12749">
        <ele>33</ele>
        <time>2022-04-30T20:22:47+02:00</time>
      </trkpt>
      <trkpt lat="47.22273" lon="0.12586">
        <ele>30</ele>
        <time>2022-04-30T20:24:48+02:00</time>
      </trkpt>
      <trkpt lat="47.22191" lon="0.12684">
        <ele>32</ele>
        <time>2022-04-30T20:26:13+02:00</time>
      </trkpt>
      <trkpt lat="47.22128" lon="0.12583">
        <ele>32</ele>
        <time>2022-04-30T20:27:27+02:00</time>
      </trkpt>
      <trkpt lat="47.22058" lon="0.12511">
        <ele>33</ele>
        <time>2022-04-30T20:28:36+02:00</time>
      </trkpt>
      <trkpt lat="47.21997" lon="0.12457">
        <ele>32</ele>
        <time>2022-04-30T20:29:33+02:00</time>
      </trkpt>
      <trkpt lat="47.21922" lon="0.12413">
        <ele>32</ele>
        <time>2022-04-30T20:30:37+02:00</time>
      </trkpt>
      <trkpt lat="47.2189" lon="0.12272">
        <ele>31</ele>
        <time>2022-04-30T20:31:58+02:00</time>
      </trkpt>
      <trkpt lat="47.2188" lon="0.12255">
        <ele>31</ele>
        <time>2022-04-30T20:32:10+02:00</time>
      </trkpt>
      <trkpt lat="47.21859" lon="0.12162">
        <ele>32</ele>
        <time>2022-04-30T20:33:04+02:00</time>
      </trkpt>
      <trkpt lat="47.21834" lon="0.12117">
        <ele>32</ele>
        <time>2022-04-30T20:33:35+02:00</time>
      </trkpt>
      <trkpt lat="47.21836" lon="0.1208">
        <ele>32</ele>
        <time>2022-04-30T20:33:55+02:00</time>
      </trkpt>
      <trkpt lat="47.21822" lon="0.12032">
        <ele>31</ele>
        <time>2022-04-30T20:34:24+02:00</time>
      </trkpt>
      <trkpt lat="47.21729" lon="0.1191">
        <ele>30</ele>
        <time>2022-04-30T20:36:04+02:00</time>
      </trkpt>
      <trkpt lat="47.21635" lon="0.11839">
        <ele>30</ele>
        <time>2022-04-30T20:37:28+02:00</time>
      </trkpt>
      <trkpt lat="47.21667" lon="0.11831">
        <ele>30</ele>
        <time>2022-04-30T20:37:54+02:00</time>
      </trkpt>
      <trkpt lat="47.21693" lon="0.11797">
        <ele>30</ele>
        <time>2022-04-30T20:38:22+02:00</time>
      </trkpt>
      <trkpt lat="47.21748" lon="0.11696">
        <ele>30</ele>
        <time>2022-04-30T20:39:32+02:00</time>
      </trkpt>
      <trkpt lat="47.21869" lon="0.11546">
        <ele>31</ele>
        <time>2022-04-30T20:41:39+02:00</time>
      </trkpt>
      <trkpt lat="47.22075" lon="0.11346">
        <ele>33</ele>
        <time>2022-04-30T20:44:57+02:00</time>
      </trkpt>
      <trkpt lat="47.21964" lon="0.11126">
        <ele>34</ele>
        <time>2022-04-30T20:47:26+02:00</time>
      </trkpt>
      <trkpt lat="47.21925" lon="0.11061">
        <ele>32</ele>
        <time>2022-04-30T20:48:13+02:00</time>
      </trkpt>
      <trkpt lat="47.21888" lon="0.1103">
        <ele>33</ele>
        <time>2022-04-30T20:48:47+02:00</time>
      </trkpt>
      <trkpt lat="47.21825" lon="0.10938">
        <ele>33</ele>
        <time>2022-04-30T20:49:58+02:00</time>
      </trkpt>
      <trkpt lat="47.21789" lon="0.10903">
        <ele>33</ele>
        <time>2022-04-30T20:50:32+02:00</time>
      </trkpt>
      <trkpt lat="47.21808" lon="0.10854">
        <ele>30</ele>
        <time>2022-04-30T20:51:03+02:00</time>
      </trkpt>
      <trkpt lat="47.21766" lon="0.10769">
        <ele>31</ele>
        <time>2022-04-30T20:52:00+02:00</time>
      </trkpt>
      <trkpt lat="47.21728" lon="0.10741">
        <ele>31</ele>
        <time>2022-04-30T20:52:34+02:00</time>
      </trkpt>
      <trkpt lat="47.2169" lon="0.10733">
        <ele>31</ele>
        <time>2022-04-30T20:53:05+02:00</time>
      </trkpt>
      <trkpt lat="47.21608" lon="0.10854">
        <ele>32</ele>
        <time>2022-04-30T20:54:38+02:00</time>
      </trkpt>
      <trkpt lat="47.21566" lon="0.10916">
        <ele>33</ele>
        <time>2022-04-30T20:55:26+02:00</time>
      </trkpt>
      <trkpt lat="47.21536" lon="0.10971">
        <ele>33</ele>
        <time>2022-04-30T20:56:04+02:00</time>
      </trkpt>
      <trkpt lat="47.21506" lon="0.10998">
        <ele>31</ele>
        <time>2022-04-30T20:56:32+02:00</time>
      </trkpt>
      <trkpt lat="47.2151" lon="0.10953">
        <ele>31</ele>
        <time>2022-04-30T20:56:57+02:00</time>
      </trkpt>
      <trkpt lat="47.215" lon="0.10877">
        <ele>32</ele>
        <time>2022-04-30T20:57:39+02:00</time>
      </trkpt>
      <trkpt lat="47.21494" lon="0.10733">
        <ele>36</ele>
        <time>2022-04-30T20:58:57+02:00</time>
      </trkpt>
      <trkpt lat="47.21416" lon="0.09859">
        <ele>36</ele>
        <time>2022-04-30T21:06:57+02:00</time>
      </trkpt>
      <trkpt lat="47.21097" lon="0.09783">
        <ele>30</ele>
        <time>2022-04-30T21:11:16+02:00</time>
      </trkpt>
      <trkpt lat="47.21045" lon="0.09777">
        <ele>30</ele>
        <time>2022-04-30T21:11:57+02:00</time>
      </trkpt>
      <trkpt lat="47.21015" lon="0.09831">
        <ele>30</ele>
        <time>2022-04-30T21:12:35+02:00</time>
      </trkpt>
      <trkpt lat="47.20987" lon="0.09936">
        <ele>27</ele>
        <time>2022-04-30T21:13:37+02:00</time>
      </trkpt>
      <trkpt lat="47.20964" lon="0.09939">
        <ele>27</ele>
        <time>2022-04-30T21:13:55+02:00</time>
      </trkpt>
      <trkpt lat="47.20839" lon="0.10205">
        <ele>30</ele>
        <time>2022-04-30T21:16:51+02:00</time>
      </trkpt>
      <trkpt lat="47.20742" lon="0.10311">
        <ele>31</ele>
        <time>2022-04-30T21:18:28+02:00</time>
      </trkpt>
      <trkpt lat="47.20697" lon="0.10372">
        <ele>30</ele>
        <time>2022-04-30T21:19:17+02:00</time>
      </trkpt>
      <trkpt lat="47.20501" lon="0.10718">
        <ele>32</ele>
        <time>2022-04-30T21:23:22+02:00</time>
      </trkpt>
      <trkpt lat="47.20739" lon="0.11124">
        <ele>29</ele>
        <time>2022-04-30T21:28:13+02:00</time>
      </trkpt>
      <trkpt lat="47.20842" lon="0.1131">
        <ele>30</ele>
        <time>2022-04-30T21:30:24+02:00</time>
      </trkpt>
      <trkpt lat="47.20509" lon="0.11941">
        <ele>32</ele>
        <time>2022-04-30T21:37:39+02:00</time>
      </trkpt>
      <trkpt lat="47.20332" lon="0.12256">
        <ele>28</ele>
        <time>2022-04-30T21:41:21+02:00</time>
      </trkpt>
      <trkpt lat="47.20136" lon="0.11977">
        <ele>37</ele>
        <time>2022-04-30T21:44:59+02:00</time>
      </trkpt>
      <trkpt lat="47.2001" lon="0.11841">
        <ele>37</ele>
        <time>2022-04-30T21:47:04+02:00</time>
      </trkpt>
      <trkpt lat="47.19806" lon="0.11656">
        <ele>31</ele>
        <time>2022-04-30T21:50:16+02:00</time>
      </trkpt>
      <trkpt lat="47.19787" lon="0.11652">
        <ele>31</ele>
        <time>2022-04-30T21:50:32+02:00</time>
      </trkpt>
      <trkpt lat="47.19687" lon="0.11747">
        <ele>30</ele>
        <time>2022-04-30T21:52:07+02:00</time>
      </trkpt>
      <trkpt lat="47.196" lon="0.11803">
        <ele>33</ele>
        <time>2022-04-30T21:53:23+02:00</time>
      </trkpt>
      <trkpt lat="47.19414" lon="0.11992">
        <ele>33</ele>
        <time>2022-04-30T21:56:24+02:00</time>
      </trkpt>
      <trkpt lat="47.19378" lon="0.1204">
        <ele>33</ele>
        <time>2022-04-30T21:57:03+02:00</time>
      </trkpt>
      <trkpt lat="47.19348" lon="0.12121">
        <ele>33</ele>
        <time>2022-04-30T21:57:53+02:00</time>
      </trkpt>
      <trkpt lat="47.19151" lon="0.12625">
        <ele>34</ele>
        <time>2022-04-30T22:03:09+02:00</time>
      </trkpt>
      <trkpt lat="47.1908" lon="0.12836">
        <ele>31</ele>
        <time>2022-04-30T22:05:17+02:00</time>
      </trkpt>
      <trkpt lat="47.19009" lon="0.1278">
        <ele>33</ele>
        <time>2022-04-30T22:06:22+02:00</time>
      </trkpt>
      <trkpt lat="47.18921" lon="0.12728">
        <ele>32</ele>
        <time>2022-04-30T22:07:38+02:00</time>
      </trkpt>
      <trkpt lat="47.18855" lon="0.12713">
        <ele>33</ele>
        <time>2022-04-30T22:08:31+02:00</time>
      </trkpt>
      <trkpt lat="47.1882" lon="0.12694">
        <ele>33</ele>
        <time>2022-04-30T22:09:01+02:00</time>
      </trkpt>
      <trkpt lat="47.18732" lon="0.12627">
        <ele>34</ele>
        <time>2022-04-30T22:10:21+02:00</time>
      </trkpt>
      <trkpt lat="47.1867" lon="0.12605">
        <ele>36</ele>
        <time>2022-04-30T22:11:12+02:00</time>
      </trkpt>
      <trkpt lat="47.18613" lon="0.12579">
        <ele>34</ele>
        <time>2022-04-30T22:11:59+02:00</time>
      </trkpt>
      <trkpt lat="47.1859" lon="0.12569">
        <ele>33</ele>
        <time>2022-04-30T22:12:19+02:00</time>
      </trkpt>
      <trkpt lat="47.18557" lon="0.12529">
        <ele>34</ele>
        <time>2022-04-30T22:12:53+02:00</time>
      </trkpt>
      <trkpt lat="47.18519" lon="0.12526">
        <ele>34</ele>
        <time>2022-04-30T22:13:23+02:00</time>
      </trkpt>
      <trkpt lat="47.18485" lon="0.12613">
        <ele>34</ele>
        <time>2022-04-30T22:14:18+02:00</time>
      </trkpt>
      <trkpt lat="47.18469" lon="0.12696">
        <ele>36</ele>
        <time>2022-04-30T22:15:05+02:00</time>
      </trkpt>
      <trkpt lat="47.18441" lon="0.128">
        <ele>36</ele>
        <time>2022-04-30T22:16:06+02:00</time>
      </trkpt>
      <trkpt lat="47.18437" lon="0.12888">
        <ele>36</ele>
        <time>2022-04-30T22:16:54+02:00</time>
      </trkpt>
      <trkpt lat="47.18417" lon="0.12961">
        <ele>35</ele>
        <time>2022-04-30T22:17:37+02:00</time>
      </trkpt>
      <trkpt lat="47.18404" lon="0.13023">
        <ele>35</ele>
        <time>2022-04-30T22:18:12+02:00</time>
      </trkpt>
      <trkpt lat="47.18351" lon="0.13454">
        <ele>31</ele>
        <time>2022-04-30T22:22:10+02:00</time>
      </trkpt>
      <trkpt lat="47.18346" lon="0.13537">
        <ele>32</ele>
        <time>2022-04-30T22:22:56+02:00</time>
      </trkpt>
      <trkpt lat="47.18292" lon="0.13904">
        <ele>32</ele>
        <time>2022-04-30T22:26:20+02:00</time>
      </trkpt>
      <trkpt lat="47.18265" lon="0.14097">
        <ele>33</ele>
        <time>2022-04-30T22:28:07+02:00</time>
      </trkpt>
      <trkpt lat="47.18217" lon="0.14413">
        <ele>31</ele>
        <time>2022-04-30T22:31:03+02:00</time>
      </trkpt>
      <trkpt lat="47.18095" lon="0.15273">
        <ele>34</ele>
        <time>2022-04-30T22:39:01+02:00</time>
      </trkpt>
      <trkpt lat="47.1811" lon="0.15524">
        <ele>34</ele>
        <time>2022-04-30T22:41:19+02:00</time>
      </trkpt>
      <trkpt lat="47.17993" lon="0.1612">
        <ele>34</ele>
        <time>2022-04-30T22:46:56+02:00</time>
      </trkpt>
      <trkpt lat="47.17796" lon="0.16673">
        <ele>31</ele>
        <time>2022-04-30T22:52:36+02:00</time>
      </trkpt>
      <trkpt lat="47.18098" lon="0.16893">
        <ele>36</ele>
        <time>2022-04-30T22:57:06+02:00</time>
      </trkpt>
      <trkpt lat="47.18111" lon="0.16941">
        <ele>36</ele>
        <time>2022-04-30T22:57:34+02:00</time>
      </trkpt>
      <trkpt lat="47.18034" lon="0.17497">
        <ele>36</ele>
        <time>2022-04-30T23:02:43+02:00</time>
      </trkpt>
      <trkpt lat="47.18347" lon="0.17719">
        <ele>35</ele>
        <time>2022-04-30T23:07:21+02:00</time>
      </trkpt>
      <trkpt lat="47.18368" lon="0.17659">
        <ele>35</ele>
        <time>2022-04-30T23:07:58+02:00</time>
      </trkpt>
      <trkpt lat="47.18588" lon="0.17831">
        <ele>43</ele>
        <time>2022-04-30T23:11:17+02:00</time>
      </trkpt>
      <trkpt lat="47.18633" lon="0.17713">
        <ele>45</ele>
        <time>2022-04-30T23:12:31+02:00</time>
      </trkpt>
      <trkpt lat="47.18646" lon="0.17637">
        <ele>45</ele>
        <time>2022-04-30T23:13:13+02:00</time>
      </trkpt>
      <trkpt lat="47.18669" lon="0.17523">
        <ele>42</ele>
        <time>2022-04-30T23:14:18+02:00</time>
      </trkpt>
      <trkpt lat="47.18694" lon="0.17418">
        <ele>40</ele>
        <time>2022-04-30T23:15:19+02:00</time>
      </trkpt>
      <trkpt lat="47.18758" lon="0.17303">
        <ele>42</ele>
        <time>2022-04-30T23:16:40+02:00</time>
      </trkpt>
      <trkpt lat="47.18856" lon="0.17237">
        <ele>40</ele>
        <time>2022-04-30T23:18:06+02:00</time>
      </trkpt>
      <trkpt lat="47.1887" lon="0.17254">
        <ele>40</ele>
        <time>2022-04-30T23:18:20+02:00</time>
      </trkpt>
      <trkpt lat="47.18888" lon="0.17266">
        <ele>40</ele>
        <time>2022-04-30T23:18:36+02:00</time>
      </trkpt>
      <trkpt lat="47.1886" lon="0.17245">
        <ele>40</ele>
        <time>2022-04-30T23:19:01+02:00</time>
      </trkpt>
      <trkpt lat="47.1884" lon="0.17282">
        <ele>41</ele>
        <time>2022-04-30T23:19:27+02:00</time>
      </trkpt>
      <trkpt lat="47.18816" lon="0.17269">
        <ele>42</ele>
        <time>2022-04-30T23:19:48+02:00</time>
      </trkpt>
      <trkpt lat="47.18803" lon="0.17281">
        <ele>42</ele>
        <time>2022-04-30T23:20:00+02:00</time>
      </trkpt>
      <trkpt lat="47.18855" lon="0.17109">
        <ele>38</ele>
        <time>2022-04-30T23:21:42+02:00</time>
      </trkpt>
      <trkpt lat="47.18705" lon="0.16959">
        <ele>34</ele>
        <time>2022-04-30T23:24:08+02:00</time>
      </trkpt>
      <trkpt lat="47.1859" lon="0.16886">
        <ele>33</ele>
        <time>2022-04-30T23:25:48+02:00</time>
      </trkpt>
      <trkpt lat="47.1851" lon="0.16913">
        <ele>32</ele>
        <time>2022-04-30T23:26:54+02:00</time>
      </trkpt>
      <trkpt lat="47.18452" lon="0.16971">
        <ele>32</ele>
        <time>2022-04-30T23:27:50+02:00</time>
      </trkpt>
      <trkpt lat="47.18178" lon="0.16804">
        <ele>35</ele>
        <time>2022-04-30T23:31:47+02:00</time>
      </trkpt>
      <trkpt lat="47.18144" lon="0.16742">
        <ele>34</ele>
        <time>2022-04-30T23:32:30+02:00</time>
      </trkpt>
      <trkpt lat="47.18248" lon="0.16307">
        <ele>31</ele>
        <time>2022-04-30T23:36:41+02:00</time>
      </trkpt>
      <trkpt lat="47.18398" lon="0.15699">
        <ele>36</ele>
        <time>2022-04-30T23:42:33+02:00</time>
      </trkpt>
      <trkpt lat="47.18812" lon="0.15993">
        <ele>34</ele>
        <time>2022-04-30T23:48:41+02:00</time>
      </trkpt>
      <trkpt lat="47.18806" lon="0.15891">
        <ele>35</ele>
        <time>2022-04-30T23:49:37+02:00</time>
      </trkpt>
      <trkpt lat="47.18857" lon="0.15797">
        <ele>36</ele>
        <time>2022-04-30T23:50:43+02:00</time>
      </trkpt>
      <trkpt lat="47.18856" lon="0.15758">
        <ele>33</ele>
        <time>2022-04-30T23:51:04+02:00</time>
      </trkpt>
      <trkpt lat="47.18885" lon="0.15649">
        <ele>32</ele>
        <time>2022-04-30T23:52:08+02:00</time>
      </trkpt>
      <trkpt lat="47.18817" lon="0.15595">
        <ele>30</ele>
        <time>2022-04-30T23:53:09+02:00</time>
      </trkpt>
      <trkpt lat="47.18857" lon="0.15458">
        <ele>33</ele>
        <time>2022-04-30T23:54:31+02:00</time>
      </trkpt>
      <trkpt lat="47.18916" lon="0.15554">
        <ele>34</ele>
        <time>2022-04-30T23:55:41+02:00</time>
      </trkpt>
      <trkpt lat="47.19023" lon="0.15663">
        <ele>39</ele>
        <time>2022-04-30T23:57:25+02:00</time>
      </trkpt>
      <trkpt lat="47.19136" lon="0.15886">
        <ele>39</ele>
        <time>2022-04-30T23:59:57+02:00</time>
      </trkpt>
      <trkpt lat="47.19278" lon="0.16077">
        <ele>35</ele>
        <time>2022-05-01T00:02:31+02:00</time>
      </trkpt>
      <trkpt lat="47.19347" lon="0.16045">
        <ele>38</ele>
        <time>2022-05-01T00:03:29+02:00</time>
      </trkpt>
      <trkpt lat="47.19444" lon="0.15921">
        <ele>36</ele>
        <time>2022-05-01T00:05:11+02:00</time>
      </trkpt>
      <trkpt lat="47.19522" lon="0.15886">
        <ele>31</ele>
        <time>2022-05-01T00:06:17+02:00</time>
      </trkpt>
      <trkpt lat="47.19636" lon="0.15783">
        <ele>32</ele>
        <time>2022-05-01T00:08:04+02:00</time>
      </trkpt>
      <trkpt lat="47.19725" lon="0.15609">
        <ele>33</ele>
        <time>2022-05-01T00:10:02+02:00</time>
      </trkpt>
      <trkpt lat="47.19725" lon="0.15756">
        <ele>33</ele>
        <time>2022-05-01T00:11:22+02:00</time>
      </trkpt>
      <trkpt lat="47.19716" lon="0.1585">
        <ele>33</ele>
        <time>2022-05-01T00:12:14+02:00</time>
      </trkpt>
      <trkpt lat="47.19747" lon="0.15857">
        <ele>33</ele>
        <time>2022-05-01T00:12:39+02:00</time>
      </trkpt>
      <trkpt lat="47.19767" lon="0.15849">
        <ele>33</ele>
        <time>2022-05-01T00:12:56+02:00</time>
      </trkpt>
      <trkpt lat="47.19793" lon="0.15852">
        <ele>32</ele>
        <time>2022-05-01T00:13:16+02:00</time>
      </trkpt>
      <trkpt lat="47.19808" lon="0.15842">
        <ele>32</ele>
        <time>2022-05-01T00:13:30+02:00</time>
      </trkpt>
      <trkpt lat="47.1984" lon="0.15848">
        <ele>32</ele>
        <time>2022-05-01T00:13:55+02:00</time>
      </trkpt>
      <trkpt lat="47.20017" lon="0.1589">
        <ele>33</ele>
        <time>2022-05-01T00:16:19+02:00</time>
      </trkpt>
      <trkpt lat="47.20329" lon="0.15953">
        <ele>35</ele>
        <time>2022-05-01T00:20:31+02:00</time>
      </trkpt>
      <trkpt lat="47.20334" lon="0.15852">
        <ele>36.3</ele>
        <time>2022-05-01T00:21:39+02:00</time>
      </trkpt>
      <trkpt lat="47.20402" lon="0.15861">
        <ele>35.5</ele>
        <time>2022-05-01T00:24:46+02:00</time>
      </trkpt>
      <trkpt lat="47.20527" lon="0.15878">
        <ele>35.4</ele>
        <time>2022-05-01T00:26:55+02:00</time>
      </trkpt>
      <trkpt lat="47.2055" lon="0.15881">
        <ele>35.3</ele>
        <time>2022-05-01T00:28:29+02:00</time>
      </trkpt>
      <trkpt lat="47.20542" lon="0.15901">
        <ele>35</ele>
      </trkpt>
      <trkpt lat="47.20529" lon="0.15935">
        <ele>35</ele>
        <time>2022-05-01T00:29:05+02:00</time>
      </trkpt>
      <trkpt lat="47.20528" lon="0.15954">
        <ele>35</ele>
      </trkpt>
      <trkpt lat="47.20533" lon="0.15968">
        <ele>35</ele>
        <time>2022-05-01T00:36:18+02:00</time>
      </trkpt>
      <trkpt lat="47.20532" lon="0.15955">
        <ele>35</ele>
      </trkpt>
      <trkpt lat="47.20534" lon="0.15941">
        <ele>35</ele>
      </trkpt>
      <trkpt lat="47.20547" lon="0.15908">
        <ele>35</ele>
        <time>2022-05-01T00:36:52+02:00</time>
      </trkpt>
      <trkpt lat="47.20578" lon="0.15838">
        <ele>35.2</ele>
        <time>2022-05-01T00:37:45+02:00</time>
      </trkpt>
      <trkpt lat="47.20604" lon="0.15569">
        <ele>37</ele>
        <time>2022-05-01T00:40:05+02:00</time>
      </trkpt>
      <trkpt lat="47.20625" lon="0.15597">
        <ele>37</ele>
        <time>2022-05-01T00:40:28+02:00</time>
      </trkpt>
      <trkpt lat="47.20657" lon="0.15618">
        <ele>37</ele>
        <time>2022-05-01T00:40:56+02:00</time>
      </trkpt>
      <trkpt lat="47.2069" lon="0.15625">
        <ele>39</ele>
        <time>2022-05-01T00:41:23+02:00</time>
      </trkpt>
      <trkpt lat="47.20713" lon="0.15619">
        <ele>40</ele>
        <time>2022-05-01T00:41:41+02:00</time>
      </trkpt>
      <trkpt lat="47.20722" lon="0.15619">
        <ele>40</ele>
        <time>2022-05-01T00:41:49+02:00</time>
      </trkpt>
      <trkpt lat="47.20911" lon="0.15639">
        <ele>44</ele>
        <time>2022-05-01T00:44:20+02:00</time>
      </trkpt>
      <trkpt lat="47.2105" lon="0.1567">
        <ele>42</ele>
        <time>2022-05-01T00:46:13+02:00</time>
      </trkpt>
      <trkpt lat="47.2109" lon="0.15449">
        <ele>44</ele>
        <time>2022-05-01T00:48:17+02:00</time>
      </trkpt>
      <trkpt lat="47.21101" lon="0.15424">
        <ele>44</ele>
        <time>2022-05-01T00:48:34+02:00</time>
      </trkpt>
      <trkpt lat="47.2103" lon="0.15296">
        <ele>46</ele>
        <time>2022-05-01T00:50:03+02:00</time>
      </trkpt>
      <trkpt lat="47.21062" lon="0.15301">
        <ele>46</ele>
        <time>2022-05-01T00:50:29+02:00</time>
      </trkpt>
      <trkpt lat="47.21261" lon="0.15354">
        <ele>40</ele>
        <time>2022-05-01T00:53:11+02:00</time>
      </trkpt>
      <trkpt lat="47.21353" lon="0.15361">
        <ele>38</ele>
        <time>2022-05-01T00:54:25+02:00</time>
      </trkpt>
      <trkpt lat="47.21349" lon="0.15331">
        <ele>37</ele>
        <time>2022-05-01T00:54:42+02:00</time>
      </trkpt>
      <trkpt lat="47.21356" lon="0.15247">
        <ele>36</ele>
        <time>2022-05-01T00:55:28+02:00</time>
      </trkpt>
      <trkpt lat="47.2135" lon="0.15201">
        <ele>36</ele>
        <time>2022-05-01T00:55:53+02:00</time>
      </trkpt>
      <trkpt lat="47.21368" lon="0.14981">
        <ele>34</ele>
        <time>2022-05-01T00:57:54+02:00</time>
      </trkpt>
      <trkpt lat="47.21393" lon="0.14954">
        <ele>34</ele>
        <time>2022-05-01T00:58:18+02:00</time>
      </trkpt>
      <trkpt lat="47.21426" lon="0.14926">
        <ele>34</ele>
        <time>2022-05-01T00:58:49+02:00</time>
      </trkpt>
      <trkpt lat="47.21447" lon="0.14915">
        <ele>34</ele>
        <time>2022-05-01T00:59:07+02:00</time>
      </trkpt>
      <trkpt lat="47.21451" lon="0.14888">
        <ele>35</ele>
        <time>2022-05-01T00:59:22+02:00</time>
      </trkpt>
      <trkpt lat="47.21408" lon="0.14798">
        <ele>35</ele>
        <time>2022-05-01T01:00:22+02:00</time>
      </trkpt>
      <trkpt lat="47.21388" lon="0.14742">
        <ele>35</ele>
        <time>2022-05-01T01:00:56+02:00</time>
      </trkpt>
      <trkpt lat="47.21369" lon="0.14673">
        <ele>34</ele>
        <time>2022-05-01T01:01:36+02:00</time>
      </trkpt>
      <trkpt lat="47.21355" lon="0.14645">
        <ele>34</ele>
        <time>2022-05-01T01:01:55+02:00</time>
      </trkpt>
      <trkpt lat="47.21364" lon="0.14618">
        <ele>34</ele>
        <time>2022-05-01T01:02:12+02:00</time>
      </trkpt>
      <trkpt lat="47.21477" lon="0.14633">
        <ele>35</ele>
        <time>2022-05-01T01:03:43+02:00</time>
      </trkpt>
      <trkpt lat="47.21549" lon="0.14641">
        <ele>34</ele>
        <time>2022-05-01T01:04:40+02:00</time>
      </trkpt>
      <trkpt lat="47.21694" lon="0.14688">
        <ele>33</ele>
        <time>2022-05-01T01:06:39+02:00</time>
      </trkpt>
      <trkpt lat="47.21801" lon="0.14702">
        <ele>33</ele>
        <time>2022-05-01T01:08:05+02:00</time>
      </trkpt>
      <trkpt lat="47.21805" lon="0.14474">
        <ele>33</ele>
        <time>2022-05-01T01:10:09+02:00</time>
      </trkpt>
      <trkpt lat="47.21812" lon="0.14359">
        <ele>32</ele>
        <time>2022-05-01T01:11:12+02:00</time>
      </trkpt>
      <trkpt lat="47.21792" lon="0.14232">
        <ele>32</ele>
        <time>2022-05-01T01:12:23+02:00</time>
      </trkpt>
      <trkpt lat="47.2191" lon="0.14222">
        <ele>33</ele>
        <time>2022-05-01T01:13:58+02:00</time>
      </trkpt>
      <trkpt lat="47.22074" lon="0.14243">
        <ele>33</ele>
        <time>2022-05-01T01:16:09+02:00</time>
      </trkpt>
      <trkpt lat="47.22137" lon="0.14263">
        <ele>32</ele>
        <time>2022-05-01T01:17:01+02:00</time>
      </trkpt>
      <trkpt lat="47.22244" lon="0.14255">
        <ele>33</ele>
        <time>2022-05-01T01:18:27+02:00</time>
      </trkpt>
      <trkpt lat="47.22359" lon="0.14227">
        <ele>34</ele>
        <time>2022-05-01T01:20:00+02:00</time>
      </trkpt>
      <trkpt lat="47.22385" lon="0.14453">
        <ele>33</ele>
        <time>2022-05-01T01:22:05+02:00</time>
      </trkpt>
      <trkpt lat="47.22424" lon="0.14737">
        <ele>34</ele>
        <time>2022-05-01T01:24:42+02:00</time>
      </trkpt>
      <trkpt lat="47.22439" lon="0.14979">
        <ele>36</ele>
        <time>2022-05-01T01:26:55+02:00</time>
      </trkpt>
      <trkpt lat="47.2244" lon="0.15127">
        <ele>37</ele>
        <time>2022-05-01T01:28:15+02:00</time>
      </trkpt>
      <trkpt lat="47.22471" lon="0.15255">
        <ele>33</ele>
        <time>2022-05-01T01:29:29+02:00</time>
      </trkpt>
      <trkpt lat="47.22469" lon="0.15297">
        <ele>34</ele>
        <time>2022-05-01T01:29:52+02:00</time>
      </trkpt>
      <trkpt lat="47.22627" lon="0.15287">
        <ele>33</ele>
        <time>2022-05-01T01:31:58+02:00</time>
      </trkpt>
      <trkpt lat="47.22852" lon="0.15297">
        <ele>33</ele>
        <time>2022-05-01T01:34:59+02:00</time>
      </trkpt>
      <trkpt lat="47.22904" lon="0.15295">
        <ele>33</ele>
        <time>2022-05-01T01:35:40+02:00</time>
      </trkpt>
      <trkpt lat="47.229" lon="0.14937">
        <ele>32</ele>
        <time>2022-05-01T01:38:55+02:00</time>
      </trkpt>
      <trkpt lat="47.22881" lon="0.1459">
        <ele>33</ele>
        <time>2022-05-01T01:42:04+02:00</time>
      </trkpt>
      <trkpt lat="47.22979" lon="0.14574">
        <ele>33</ele>
        <time>2022-05-01T01:43:23+02:00</time>
      </trkpt>
      <trkpt lat="47.23156" lon="0.1458">
        <ele>32</ele>
        <time>2022-05-01T01:45:45+02:00</time>
      </trkpt>
      <trkpt lat="47.2316" lon="0.14611">
        <ele>32</ele>
        <time>2022-05-01T01:46:02+02:00</time>
      </trkpt>
      <trkpt lat="47.23175" lon="0.14614">
        <ele>32</ele>
        <time>2022-05-01T01:46:14+02:00</time>
      </trkpt>
      <trkpt lat="47.23243" lon="0.14607">
        <ele>32</ele>
        <time>2022-05-01T01:47:09+02:00</time>
      </trkpt>
      <trkpt lat="47.2326" lon="0.14586">
        <ele>32</ele>
        <time>2022-05-01T01:47:27+02:00</time>
      </trkpt>
      <trkpt lat="47.23353" lon="0.14563">
        <ele>35</ele>
        <time>2022-05-01T01:48:42+02:00</time>
      </trkpt>
      <trkpt lat="47.2335" lon="0.14464">
        <ele>33</ele>
        <time>2022-05-01T01:49:36+02:00</time>
      </trkpt>
      <trkpt lat="47.23348" lon="0.14343">
        <ele>32</ele>
        <time>2022-05-01T01:50:42+02:00</time>
      </trkpt>
      <trkpt lat="47.23324" lon="0.14171">
        <ele>34</ele>
        <time>2022-05-01T01:52:17+02:00</time>
      </trkpt>
      <trkpt lat="47.23214" lon="0.14184">
        <ele>34</ele>
        <time>2022-05-01T01:53:46+02:00</time>
      </trkpt>
      <trkpt lat="47.23202" lon="0.14167">
        <ele>33</ele>
        <time>2022-05-01T01:53:59+02:00</time>
      </trkpt>
      <trkpt lat="47.23166" lon="0.14166">
        <ele>33</ele>
        <time>2022-05-01T01:54:28+02:00</time>
      </trkpt>
      <trkpt lat="47.23204" lon="0.14167">
        <ele>33</ele>
        <time>2022-05-01T01:54:58+02:00</time>
      </trkpt>
      <trkpt lat="47.23225" lon="0.14185">
        <ele>34</ele>
        <time>2022-05-01T01:55:18+02:00</time>
      </trkpt>
      <trkpt lat="47.23319" lon="0.1417">
        <ele>34</ele>
        <time>2022-05-01T01:56:33+02:00</time>
      </trkpt>
      <trkpt lat="47.23324" lon="0.14145">
        <ele>34</ele>
        <time>2022-05-01T01:56:48+02:00</time>
      </trkpt>
      <trkpt lat="47.23325" lon="0.14091">
        <ele>34</ele>
        <time>2022-05-01T01:57:17+02:00</time>
      </trkpt>
      <trkpt lat="47.233" lon="0.14018">
        <ele>34</ele>
        <time>2022-05-01T01:58:01+02:00</time>
      </trkpt>
      <trkpt lat="47.23262" lon="0.13963">
        <ele>32</ele>
        <time>2022-05-01T01:58:44+02:00</time>
      </trkpt>
      <trkpt lat="47.23261" lon="0.1389">
        <ele>32</ele>
        <time>2022-05-01T01:59:24+02:00</time>
      </trkpt>
      <trkpt lat="47.23254" lon="0.13855">
        <ele>33</ele>
        <time>2022-05-01T01:59:44+02:00</time>
      </trkpt>
      <trkpt lat="47.23178" lon="0.13842">
        <ele>35</ele>
        <time>2022-05-01T02:00:45+02:00</time>
      </trkpt>
      <trkpt lat="47.23111" lon="0.13872">
        <ele>35</ele>
        <time>2022-05-01T02:01:41+02:00</time>
      </trkpt>
      <trkpt lat="47.23089" lon="0.13847">
        <ele>35</ele>
        <time>2022-05-01T02:02:03+02:00</time>
      </trkpt>
      <trkpt lat="47.23068" lon="0.13827">
        <ele>34</ele>
        <time>2022-05-01T02:02:23+02:00</time>
      </trkpt>
      <trkpt lat="47.23026" lon="0.13755">
        <ele>31</ele>
        <time>2022-05-01T02:03:15+02:00</time>
      </trkpt>
      <trkpt lat="47.22943" lon="0.13728">
        <ele>31</ele>
        <time>2022-05-01T02:04:23+02:00</time>
      </trkpt>
      <trkpt lat="47.22627" lon="0.13658">
        <ele>34</ele>
        <time>2022-05-01T02:08:39+02:00</time>
      </trkpt>
      <trkpt lat="47.22553" lon="0.13632">
        <ele>34</ele>
        <time>2022-05-01T02:09:40+02:00</time>
      </trkpt>
      <trkpt lat="47.22497" lon="0.13636">
        <ele>34</ele>
        <time>2022-05-01T02:10:24+02:00</time>
      </trkpt>
      <trkpt lat="47.2249" lon="0.1357">
        <ele>33</ele>
        <time>2022-05-01T02:11:01+02:00</time>
      </trkpt>
      <trkpt lat="47.22474" lon="0.13497">
        <ele>34</ele>
        <time>2022-05-01T02:11:42+02:00</time>
      </trkpt>
      <trkpt lat="47.22464" lon="0.13428">
        <ele>33</ele>
        <time>2022-05-01T02:12:21+02:00</time>
      </trkpt>
      <trkpt lat="47.22371" lon="0.13441">
        <ele>33</ele>
        <time>2022-05-01T02:13:36+02:00</time>
      </trkpt>
      <trkpt lat="47.22338" lon="0.13307">
        <ele>33</ele>
        <time>2022-05-01T02:14:53+02:00</time>
      </trkpt>
      <trkpt lat="47.2232" lon="0.13245">
        <ele>33</ele>
        <time>2022-05-01T02:15:30+02:00</time>
      </trkpt>
      <trkpt lat="47.22301" lon="0.13208">
        <ele>33</ele>
        <time>2022-05-01T02:15:55+02:00</time>
      </trkpt>
      <trkpt lat="47.22372" lon="0.13078">
        <ele>33</ele>
        <time>2022-05-01T02:17:26+02:00</time>
      </trkpt>
      <trkpt lat="47.22473" lon="0.12988">
        <ele>33</ele>
        <time>2022-05-01T02:19:00+02:00</time>
      </trkpt>
      <trkpt lat="47.22379" lon="0.12754">
        <ele>33</ele>
        <time>2022-05-01T02:21:28+02:00</time>
      </trkpt>
      <trkpt lat="47.2247" lon="0.12664">
        <ele>32</ele>
        <time>2022-05-01T02:22:56+02:00</time>
      </trkpt>
    </trkseg>
  </trk>
</gpx>